Current Weather

Nyc Central Park

Nyc Central Park, New York (KNYC)

Report from: Thursday, May 19, 2022 1:51 PM EDT
Current time: Thursday, May 19, 2022 2:23 PM EDT

Nearby weather
Weather history
Weather forecast

Temperature14.4°C (57.9°F)
Dew point12.2°C (54.0°F)
Winds Calm
Visibility7 mi. (11.3 km)
Clouds Ceiling: Overcast 1,100 ft. (335 m)
Altimeter29.75 in.Hg (1007 mB)
Precip last 3 hours0.03 in. (1 mm)
Relative humidity87 %
Density altitude325 ft. (99 m)
Sea-level pressure100.7 kPa (1007 mB, 29.72 in.Hg)
Max temp last 6 hours15.0°C (59.0°F)
Min temp last 6 hours12.2°C (54.0°F)
Remarks Fully automated report
System requires maintenance
Automated weather observing station with precipitation discriminator
Pressure falling more quickly
Flight conditions Marginal Visual Meteorological Conditions
Raw dataKNYC 191751Z AUTO 00000KT 7SM OVC011 14/12 A2975 RMK AO2 SLP066 60003 T01440122 10150 20122 58011 $
An error has occurred. This application may no longer respond until reloaded. Reload 🗙